Time;durP1;ratioP1;P1;durP2;ratioP2;P2;SDS_P1;SDS_P2;PMS_P1;PMS_P2;Temp;Humidity;BMP_temperature;BMP_pressure;BME280_temperature;BME280_humidity;BME280_pressure;Samples;Min_cycle;Max_cycle;Signal;HPM_P1;HPM_P2
2022/04/12 00:01:41;;;;;;;18.92;12.63;;;;;;;;;;5052770;28;20044;-66
2022/04/12 00:04:07;;;;;;;18.52;12.85;;;;;;;;;;5037101;28;20067;-66
2022/04/12 00:06:33;;;;;;;20.23;13.07;;;;;;;;;;5042535;28;20518;-67
2022/04/12 00:08:59;;;;;;;19.17;13.23;;;;;;;;;;5052555;28;20040;-65
2022/04/12 00:11:26;;;;;;;20.33;13.15;;;;;;;;;;5043454;28;20044;-66
2022/04/12 00:13:52;;;;;;;23.38;12.63;;;;;;;;;;5037221;28;20037;-66
2022/04/12 00:16:18;;;;;;;19.30;12.48;;;;;;;;;;5042818;28;20045;-65
2022/04/12 00:19:02;;;;;;;17.88;12.10;;;;;;;;;;5052483;28;20059;-66
2022/04/12 00:21:28;;;;;;;22.75;12.98;;;;;;;;;;5037585;28;20048;-66
2022/04/12 00:23:54;;;;;;;20.20;12.98;;;;;;;;;;5049649;28;20045;-66
2022/04/12 00:26:20;;;;;;;20.75;12.38;;;;;;;;;;5044808;28;20056;-66
2022/04/12 00:28:46;;;;;;;22.45;13.20;;;;;;;;;;5045807;28;20128;-66
2022/04/12 00:31:12;;;;;;;19.83;12.50;;;;;;;;;;5032588;28;20045;-66
2022/04/12 00:33:38;;;;;;;20.10;12.45;;;;;;;;;;5050799;28;20045;-66
2022/04/12 00:36:06;;;;;;;17.65;13.02;;;;;;;;;;5052164;28;20045;-66
2022/04/12 00:38:35;;;;;;;19.02;12.15;;;;;;;;;;5030316;28;20077;-66
2022/04/12 00:41:01;;;;;;;20.50;13.45;;;;;;;;;;5032004;28;20045;-65
2022/04/12 00:43:29;;;;;;;21.73;13.07;;;;;;;;;;5045149;28;20045;-66
2022/04/12 00:46:00;;;;;;;19.95;12.73;;;;;;;;;;5037761;28;20155;-66
2022/04/12 00:48:26;;;;;;;18.80;12.00;;;;;;;;;;5036156;28;20049;-66
2022/04/12 00:50:52;;;;;;;20.77;12.65;;;;;;;;;;5023861;28;20046;-65
2022/04/12 00:53:18;;;;;;;20.63;12.80;;;;;;;;;;5043644;28;20131;-65
2022/04/12 00:55:46;;;;;;;21.75;12.68;;;;;;;;;;5047048;28;20053;-66
2022/04/12 00:58:12;;;;;;;19.05;12.07;;;;;;;;;;5021385;28;20444;-66
2022/04/12 01:00:38;;;;;;;19.70;12.13;;;;;;;;;;5054032;28;20115;-66
2022/04/12 01:03:04;;;;;;;20.08;12.18;;;;;;;;;;5017497;28;20140;-66
2022/04/12 01:05:31;;;;;;;20.85;12.90;;;;;;;;;;5022626;28;20045;-67
2022/04/12 01:07:57;;;;;;;19.98;11.68;;;;;;;;;;5051581;28;20049;-63
2022/04/12 01:10:23;;;;;;;18.90;12.25;;;;;;;;;;5053489;28;20480;-64
2022/04/12 01:12:51;;;;;;;20.52;12.20;;;;;;;;;;5054168;28;20068;-65
2022/04/12 01:15:22;;;;;;;18.50;12.23;;;;;;;;;;5054286;28;20475;-66
2022/04/12 01:17:48;;;;;;;16.98;12.07;;;;;;;;;;5034024;28;20083;-65
2022/04/12 01:20:19;;;;;;;18.33;12.50;;;;;;;;;;5024882;28;20045;-64
2022/04/12 01:23:04;;;;;;;19.02;12.65;;;;;;;;;;5037669;28;20102;-65
2022/04/12 01:25:30;;;;;;;17.02;11.38;;;;;;;;;;5036483;28;20091;-65
2022/04/12 01:27:56;;;;;;;20.45;12.23;;;;;;;;;;5035260;28;20053;-65
2022/04/12 01:30:22;;;;;;;17.65;12.35;;;;;;;;;;5034436;28;20046;-66
2022/04/12 01:32:48;;;;;;;23.10;12.70;;;;;;;;;;5034729;28;20103;-66
2022/04/12 01:35:14;;;;;;;16.95;11.70;;;;;;;;;;5034905;28;20159;-66
2022/04/12 01:37:40;;;;;;;19.85;12.35;;;;;;;;;;5055032;28;20105;-65
2022/04/12 01:40:07;;;;;;;20.45;12.60;;;;;;;;;;5052261;28;20045;-66
2022/04/12 01:42:33;;;;;;;19.98;12.10;;;;;;;;;;5039545;28;20045;-65
2022/04/12 01:44:59;;;;;;;18.05;11.88;;;;;;;;;;5035075;28;20531;-67
2022/04/12 01:47:25;;;;;;;35.28;14.85;;;;;;;;;;5047915;28;20476;-65
2022/04/12 01:49:51;;;;;;;22.33;12.35;;;;;;;;;;5034755;28;20508;-65
2022/04/12 01:52:17;;;;;;;25.30;12.27;;;;;;;;;;5033710;28;20051;-64
2022/04/12 01:54:43;;;;;;;22.05;12.55;;;;;;;;;;5028118;28;20136;-65
2022/04/12 01:57:09;;;;;;;18.08;12.30;;;;;;;;;;5048698;28;20137;-65
2022/04/12 01:59:35;;;;;;;19.92;11.98;;;;;;;;;;5054356;28;20484;-66
2022/04/12 02:02:01;;;;;;;21.98;12.18;;;;;;;;;;5038735;28;20049;-65
2022/04/12 02:04:27;;;;;;;15.93;11.23;;;;;;;;;;5034837;28;20045;-66
2022/04/12 02:06:53;;;;;;;19.40;12.27;;;;;;;;;;5038486;28;20140;-65
2022/04/12 02:09:19;;;;;;;18.73;12.45;;;;;;;;;;5034007;28;20073;-65
2022/04/12 02:11:45;;;;;;;17.85;12.13;;;;;;;;;;5032477;28;20092;-65
2022/04/12 02:14:10;;;;;;;18.90;12.00;;;;;;;;;;5047631;28;20055;-65
2022/04/12 02:16:36;;;;;;;18.17;11.57;;;;;;;;;;5035769;28;20465;-65
2022/04/12 02:19:03;;;;;;;18.42;12.10;;;;;;;;;;5041899;28;20049;-66
2022/04/12 02:21:29;;;;;;;19.75;11.77;;;;;;;;;;5034003;28;20535;-66
2022/04/12 02:23:55;;;;;;;17.98;11.48;;;;;;;;;;5034193;28;20073;-65
2022/04/12 02:26:21;;;;;;;17.33;11.88;;;;;;;;;;5021147;28;20045;-65
2022/04/12 02:28:47;;;;;;;19.92;12.50;;;;;;;;;;5047531;28;20497;-66
2022/04/12 02:31:13;;;;;;;22.27;12.80;;;;;;;;;;5035288;28;20134;-66
2022/04/12 02:33:40;;;;;;;21.10;11.65;;;;;;;;;;5048133;28;20176;-65
2022/04/12 02:36:06;;;;;;;20.40;11.73;;;;;;;;;;5035764;28;20041;-66
2022/04/12 02:38:32;;;;;;;19.35;11.73;;;;;;;;;;5020294;28;20136;-66
2022/04/12 02:40:58;;;;;;;18.20;11.50;;;;;;;;;;5037105;28;20124;-66
2022/04/12 02:43:24;;;;;;;17.98;11.55;;;;;;;;;;5049359;28;20112;-66
2022/04/12 02:45:51;;;;;;;17.58;11.95;;;;;;;;;;5051081;28;20045;-65
2022/04/12 02:48:17;;;;;;;18.52;11.52;;;;;;;;;;5016056;28;20072;-66
2022/04/12 02:50:43;;;;;;;19.65;12.10;;;;;;;;;;5046561;28;20059;-65
2022/04/12 02:53:09;;;;;;;17.92;11.40;;;;;;;;;;5031311;28;20516;-66
2022/04/12 02:55:35;;;;;;;17.40;11.30;;;;;;;;;;5037283;28;20052;-67
2022/04/12 02:58:02;;;;;;;18.77;11.60;;;;;;;;;;5051858;28;20454;-65
2022/04/12 03:00:28;;;;;;;19.10;12.02;;;;;;;;;;5048364;28;20488;-66
2022/04/12 03:02:54;;;;;;;18.02;11.32;;;;;;;;;;5050123;28;20052;-64
2022/04/12 03:05:20;;;;;;;17.90;11.88;;;;;;;;;;5044153;28;20048;-64
2022/04/12 03:07:46;;;;;;;18.83;11.77;;;;;;;;;;5036244;28;20068;-65
2022/04/12 03:10:12;;;;;;;15.85;11.38;;;;;;;;;;5047885;28;20130;-65
2022/04/12 03:12:38;;;;;;;17.33;11.50;;;;;;;;;;5043640;28;20038;-66
2022/04/12 03:15:06;;;;;;;17.60;11.88;;;;;;;;;;5045332;28;20051;-66
2022/04/12 03:17:32;;;;;;;20.48;11.77;;;;;;;;;;5034520;28;20090;-66
2022/04/12 03:19:58;;;;;;;15.80;11.00;;;;;;;;;;5043149;28;20037;-66
2022/04/12 03:22:24;;;;;;;18.02;10.82;;;;;;;;;;5044458;28;20056;-66
2022/04/12 03:24:50;;;;;;;17.15;11.38;;;;;;;;;;5050857;28;20041;-66
2022/04/12 03:27:16;;;;;;;19.80;11.60;;;;;;;;;;5031066;28;20072;-65
2022/04/12 03:29:42;;;;;;;18.13;11.70;;;;;;;;;;5016801;28;20350;-66
2022/04/12 03:32:08;;;;;;;18.42;11.73;;;;;;;;;;5030927;28;20049;-66
2022/04/12 03:34:36;;;;;;;20.98;11.85;;;;;;;;;;5032461;28;20044;-65
2022/04/12 03:37:02;;;;;;;20.45;11.68;;;;;;;;;;5035201;28;20049;-66
2022/04/12 03:39:28;;;;;;;20.67;12.10;;;;;;;;;;5047424;28;20451;-66
2022/04/12 03:41:54;;;;;;;17.95;12.10;;;;;;;;;;5034819;28;20084;-65
2022/04/12 03:44:20;;;;;;;19.15;11.95;;;;;;;;;;5016296;28;20598;-65
2022/04/12 03:46:46;;;;;;;19.70;12.25;;;;;;;;;;5051950;28;20056;-66
2022/04/12 03:49:12;;;;;;;20.75;11.40;;;;;;;;;;5035924;28;20045;-66
2022/04/12 03:51:38;;;;;;;19.92;11.73;;;;;;;;;;5048472;28;20080;-66
2022/04/12 03:54:04;;;;;;;17.60;11.25;;;;;;;;;;5050001;28;20047;-66
2022/04/12 03:56:30;;;;;;;15.93;11.18;;;;;;;;;;5045953;28;20041;-65
2022/04/12 03:58:58;;;;;;;21.27;11.27;;;;;;;;;;5050270;28;20463;-66
2022/04/12 04:01:25;;;;;;;17.60;11.88;;;;;;;;;;5038192;28;20050;-66
2022/04/12 04:03:51;;;;;;;17.35;11.50;;;;;;;;;;5033493;28;20202;-65
2022/04/12 04:06:17;;;;;;;20.15;11.57;;;;;;;;;;5051532;28;20124;-66
2022/04/12 04:08:43;;;;;;;17.98;11.20;;;;;;;;;;5043817;28;20052;-66
2022/04/12 04:11:09;;;;;;;18.15;11.45;;;;;;;;;;5030469;28;20045;-66
2022/04/12 04:13:36;;;;;;;20.45;11.77;;;;;;;;;;5003187;28;20115;-65
2022/04/12 04:16:02;;;;;;;19.25;11.52;;;;;;;;;;5014721;28;20472;-66
2022/04/12 04:18:28;;;;;;;20.95;11.50;;;;;;;;;;5033291;28;20044;-65
2022/04/12 04:20:54;;;;;;;18.42;11.43;;;;;;;;;;5036700;28;20471;-66
2022/04/12 04:23:21;;;;;;;35.85;13.57;;;;;;;;;;5034976;28;20056;-66
2022/04/12 04:25:47;;;;;;;53.63;17.55;;;;;;;;;;5052888;28;20128;-66
2022/04/12 04:28:13;;;;;;;55.00;15.95;;;;;;;;;;5051069;28;20064;-66
2022/04/12 04:30:44;;;;;;;35.92;14.68;;;;;;;;;;5038363;28;20045;-66
2022/04/12 04:33:10;;;;;;;28.77;13.32;;;;;;;;;;5036570;28;20083;-67
2022/04/12 04:35:36;;;;;;;27.73;12.40;;;;;;;;;;5036371;28;20096;-66
2022/04/12 04:38:02;;;;;;;31.30;14.00;;;;;;;;;;5049607;28;20055;-66
2022/04/12 04:40:28;;;;;;;32.30;12.98;;;;;;;;;;5046681;28;20053;-65
2022/04/12 04:42:54;;;;;;;17.92;11.38;;;;;;;;;;5055978;28;20041;-66
2022/04/12 04:45:21;;;;;;;19.98;11.35;;;;;;;;;;5049614;28;20049;-66
2022/04/12 04:47:56;;;;;;;28.15;13.50;;;;;;;;;;5049842;28;20084;-66
2022/04/12 04:50:23;;;;;;;40.00;14.50;;;;;;;;;;5055759;28;20056;-66
2022/04/12 04:52:49;;;;;;;71.00;22.60;;;;;;;;;;5040303;28;20033;-65
2022/04/12 04:55:16;;;;;;;41.63;14.20;;;;;;;;;;5035450;28;20112;-65
2022/04/12 04:57:43;;;;;;;40.22;14.57;;;;;;;;;;5041737;28;20048;-65
2022/04/12 05:00:15;;;;;;;24.40;12.50;;;;;;;;;;5025983;28;20045;-65
2022/04/12 05:02:41;;;;;;;32.00;13.38;;;;;;;;;;5042897;28;20044;-66
2022/04/12 05:05:07;;;;;;;27.15;12.77;;;;;;;;;;5048449;28;20137;-66
2022/04/12 05:07:33;;;;;;;28.30;13.15;;;;;;;;;;5046698;28;20046;-66
2022/04/12 05:09:59;;;;;;;34.25;15.00;;;;;;;;;;5035915;28;20129;-65
2022/04/12 05:12:25;;;;;;;31.15;13.02;;;;;;;;;;5036574;28;20087;-66
2022/04/12 05:14:51;;;;;;;24.27;12.50;;;;;;;;;;5024841;28;20056;-65
2022/04/12 05:17:27;;;;;;;31.73;13.82;;;;;;;;;;5042023;28;20048;-65
2022/04/12 05:19:53;;;;;;;29.42;12.68;;;;;;;;;;5044953;28;20041;-65
2022/04/12 05:22:20;;;;;;;22.65;12.48;;;;;;;;;;5034593;28;20049;-65
2022/04/12 05:24:46;;;;;;;45.80;16.30;;;;;;;;;;5034711;28;20045;-66
2022/04/12 05:27:12;;;;;;;43.88;16.13;;;;;;;;;;5034175;28;20075;-66
2022/04/12 05:29:38;;;;;;;27.50;12.95;;;;;;;;;;5024023;28;20060;-66
2022/04/12 05:32:04;;;;;;;24.63;12.60;;;;;;;;;;5017090;28;20049;-66
2022/04/12 05:34:30;;;;;;;36.15;14.80;;;;;;;;;;5034496;28;20145;-66
2022/04/12 05:36:56;;;;;;;29.13;13.88;;;;;;;;;;5031758;28;20062;-66
2022/04/12 05:39:23;;;;;;;29.52;12.98;;;;;;;;;;5034292;28;20076;-66
2022/04/12 05:41:49;;;;;;;25.08;12.60;;;;;;;;;;5029697;28;20049;-65
2022/04/12 05:44:15;;;;;;;29.77;14.07;;;;;;;;;;5040731;28;20466;-66
2022/04/12 05:46:41;;;;;;;61.95;19.00;;;;;;;;;;5036555;28;20055;-65
2022/04/12 05:49:07;;;;;;;50.38;18.52;;;;;;;;;;5041776;28;20071;-64
2022/04/12 05:51:33;;;;;;;26.30;12.32;;;;;;;;;;5047864;28;20048;-65
2022/04/12 05:53:59;;;;;;;32.85;13.85;;;;;;;;;;5035013;28;20056;-66
2022/04/12 05:56:25;;;;;;;19.35;10.95;;;;;;;;;;5048631;28;20045;-66
2022/04/12 05:58:51;;;;;;;38.97;13.52;;;;;;;;;;5042142;28;20048;-65
2022/04/12 06:01:17;;;;;;;30.92;12.77;;;;;;;;;;5028195;28;20051;-66
2022/04/12 06:03:43;;;;;;;31.73;13.90;;;;;;;;;;5034528;28;20445;-65
2022/04/12 06:06:09;;;;;;;23.60;12.55;;;;;;;;;;5033225;28;20079;-66
2022/04/12 06:08:35;;;;;;;22.70;11.70;;;;;;;;;;5039116;28;20124;-66
2022/04/12 06:11:01;;;;;;;21.48;11.35;;;;;;;;;;5050044;28;20041;-66
2022/04/12 06:13:27;;;;;;;18.55;10.85;;;;;;;;;;5032346;28;20539;-66
2022/04/12 06:15:53;;;;;;;23.92;11.10;;;;;;;;;;5044523;28;20045;-66
2022/04/12 06:18:19;;;;;;;15.95;10.40;;;;;;;;;;5046557;28;20046;-66
2022/04/12 06:20:45;;;;;;;20.23;11.23;;;;;;;;;;5047379;28;20049;-66
2022/04/12 06:23:11;;;;;;;35.30;13.13;;;;;;;;;;5042257;28;20526;-65
2022/04/12 06:25:37;;;;;;;23.58;11.88;;;;;;;;;;5049018;28;24359;-66
2022/04/12 06:28:03;;;;;;;41.03;13.93;;;;;;;;;;5049575;28;20053;-66
2022/04/12 06:30:32;;;;;;;23.15;11.55;;;;;;;;;;5041376;28;20484;-67
2022/04/12 06:32:59;;;;;;;35.90;13.38;;;;;;;;;;5045856;28;20045;-66
2022/04/12 06:35:25;;;;;;;30.92;13.32;;;;;;;;;;5049674;28;20046;-64
2022/04/12 06:37:53;;;;;;;25.35;11.93;;;;;;;;;;5045137;28;20107;-67
2022/04/12 06:40:19;;;;;;;20.92;10.73;;;;;;;;;;5044983;28;20404;-65
2022/04/12 06:42:46;;;;;;;28.40;12.70;;;;;;;;;;5046590;28;20373;-65
2022/04/12 06:45:12;;;;;;;39.22;14.63;;;;;;;;;;5039759;28;20048;-66
2022/04/12 06:47:39;;;;;;;19.70;11.20;;;;;;;;;;5037369;28;20057;-66
2022/04/12 06:50:05;;;;;;;26.98;11.73;;;;;;;;;;5033593;28;20464;-66
2022/04/12 06:52:32;;;;;;;21.80;11.40;;;;;;;;;;5045908;28;20076;-65
2022/04/12 06:54:58;;;;;;;23.38;11.60;;;;;;;;;;5031456;28;20048;-66
2022/04/12 06:57:24;;;;;;;21.95;11.25;;;;;;;;;;5021248;28;20064;-65
2022/04/12 06:59:53;;;;;;;19.63;10.38;;;;;;;;;;5048577;28;20687;-65
2022/04/12 07:02:19;;;;;;;26.88;12.20;;;;;;;;;;5017684;28;20037;-66
2022/04/12 07:04:45;;;;;;;20.00;11.30;;;;;;;;;;5026144;28;20037;-65
2022/04/12 07:07:11;;;;;;;22.65;11.02;;;;;;;;;;5045422;28;20049;-65
2022/04/12 07:09:37;;;;;;;38.80;14.10;;;;;;;;;;5045640;28;20052;-66
2022/04/12 07:12:03;;;;;;;20.23;10.27;;;;;;;;;;5043959;28;20103;-67
2022/04/12 07:14:31;;;;;;;17.50;10.10;;;;;;;;;;5041689;28;20037;-66
2022/04/12 07:16:57;;;;;;;27.00;10.90;;;;;;;;;;5031563;28;20052;-66
2022/04/12 07:19:23;;;;;;;21.98;11.07;;;;;;;;;;5042848;28;20120;-65
2022/04/12 07:21:49;;;;;;;29.30;12.00;;;;;;;;;;5045606;28;20048;-66
2022/04/12 07:24:15;;;;;;;16.80;9.82;;;;;;;;;;5028073;28;20044;-66
2022/04/12 07:26:41;;;;;;;19.13;10.65;;;;;;;;;;5046442;28;20093;-66
2022/04/12 07:29:07;;;;;;;36.58;14.00;;;;;;;;;;5046968;28;20088;-65
2022/04/12 07:31:36;;;;;;;;;;;;;;;;;;5044950;28;20136;-66
2022/04/12 07:34:02;;;;;;;35.65;13.45;;;;;;;;;;5044799;28;20365;-66
2022/04/12 07:36:28;;;;;;;26.17;11.95;;;;;;;;;;5032631;28;20045;-66
2022/04/12 07:38:54;;;;;;;21.23;10.15;;;;;;;;;;5046708;28;20060;-66
2022/04/12 07:41:20;;;;;;;31.23;12.63;;;;;;;;;;5045564;28;20045;-65
2022/04/12 07:43:46;;;;;;;22.25;11.13;;;;;;;;;;5028850;28;20041;-67
2022/04/12 07:46:13;;;;;;;24.23;10.82;;;;;;;;;;5041458;28;20036;-65
2022/04/12 07:48:42;;;;;;;35.80;12.70;;;;;;;;;;5043550;28;20376;-65
2022/04/12 07:51:09;;;;;;;27.42;12.45;;;;;;;;;;5045353;28;20064;-66
2022/04/12 07:53:35;;;;;;;15.93;10.02;;;;;;;;;;5045081;28;20469;-66
2022/04/12 07:56:01;;;;;;;22.00;10.65;;;;;;;;;;5045587;28;20057;-67
2022/04/12 07:58:27;;;;;;;22.33;11.15;;;;;;;;;;5045594;28;20410;-66
2022/04/12 08:00:53;;;;;;;18.90;10.10;;;;;;;;;;5034689;28;20044;-66
2022/04/12 08:03:21;;;;;;;22.13;10.10;;;;;;;;;;5047257;28;20051;-67
2022/04/12 08:05:50;;;;;;;21.30;11.00;;;;;;;;;;5048705;28;20048;-67
2022/04/12 08:08:17;;;;;;;23.30;10.57;;;;;;;;;;5050935;28;20318;-66
2022/04/12 08:10:43;;;;;;;32.35;12.63;;;;;;;;;;5047090;28;20037;-66
2022/04/12 08:13:09;;;;;;;41.72;15.02;;;;;;;;;;5044722;28;20061;-66
2022/04/12 08:15:36;;;;;;;16.52;9.68;;;;;;;;;;5051045;28;20124;-65
2022/04/12 08:18:02;;;;;;;46.75;14.57;;;;;;;;;;5049496;28;20396;-66
2022/04/12 08:20:28;;;;;;;27.55;12.35;;;;;;;;;;5047871;28;20419;-65
2022/04/12 08:22:56;;;;;;;23.52;10.88;;;;;;;;;;5036947;28;20122;-67
2022/04/12 08:25:22;;;;;;;23.92;11.07;;;;;;;;;;5047014;28;20054;-66
2022/04/12 08:27:48;;;;;;;44.67;14.80;;;;;;;;;;5050802;28;20041;-66
2022/04/12 08:30:14;;;;;;;24.15;11.45;;;;;;;;;;5051255;28;20116;-66
2022/04/12 08:32:41;;;;;;;21.95;9.75;;;;;;;;;;5048005;28;20055;-66
2022/04/12 08:35:07;;;;;;;24.00;10.82;;;;;;;;;;5045816;28;20041;-66
2022/04/12 08:37:33;;;;;;;22.63;10.43;;;;;;;;;;5029703;28;20033;-66
2022/04/12 08:40:00;;;;;;;25.67;10.88;;;;;;;;;;5049487;28;20045;-65
2022/04/12 08:42:26;;;;;;;22.70;9.98;;;;;;;;;;5034346;28;20053;-65
2022/04/12 08:44:52;;;;;;;19.25;10.13;;;;;;;;;;5023712;28;20533;-66
2022/04/12 08:47:18;;;;;;;24.73;10.38;;;;;;;;;;5022002;28;20050;-66
2022/04/12 08:49:44;;;;;;;16.23;9.73;;;;;;;;;;5046615;28;20134;-65
2022/04/12 08:52:11;;;;;;;26.52;10.05;;;;;;;;;;5046661;28;20129;-65
2022/04/12 08:54:38;;;;;;;18.98;9.43;;;;;;;;;;5042012;28;20400;-65
2022/04/12 08:57:04;;;;;;;14.90;8.90;;;;;;;;;;5033075;28;20068;-66
2022/04/12 08:59:30;;;;;;;16.88;9.00;;;;;;;;;;5044099;28;20454;-65
2022/04/12 09:01:57;;;;;;;20.85;9.55;;;;;;;;;;5054334;28;20067;-65
2022/04/12 09:04:26;;;;;;;18.40;8.93;;;;;;;;;;5041203;28;20136;-67
2022/04/12 09:06:53;;;;;;;16.15;8.65;;;;;;;;;;5044083;28;20103;-65
2022/04/12 09:09:21;;;;;;;17.10;9.35;;;;;;;;;;5041594;28;20397;-66
2022/04/12 09:11:57;;;;;;;16.92;9.55;;;;;;;;;;5035333;28;20041;-65
2022/04/12 09:14:25;;;;;;;17.25;9.57;;;;;;;;;;5040334;28;20036;-66
2022/04/12 09:16:52;;;;;;;15.98;9.57;;;;;;;;;;5052922;28;20075;-65
2022/04/12 09:19:38;;;;;;;16.50;9.07;;;;;;;;;;5049919;28;20041;-66
2022/04/12 09:22:10;;;;;;;17.80;9.40;;;;;;;;;;5050495;28;20043;-67
2022/04/12 09:24:37;;;;;;;18.38;9.52;;;;;;;;;;5049357;28;20052;-66
2022/04/12 09:27:03;;;;;;;18.85;9.35;;;;;;;;;;5054643;28;20049;-67
2022/04/12 09:29:30;;;;;;;15.93;9.00;;;;;;;;;;5050821;28;20053;-66
2022/04/12 09:31:57;;;;;;;13.05;8.20;;;;;;;;;;5036667;28;20048;-66
2022/04/12 09:34:24;;;;;;;13.73;8.23;;;;;;;;;;5054024;28;20408;-68
2022/04/12 09:36:50;;;;;;;38.65;12.98;;;;;;;;;;5035279;28;20053;-66
2022/04/12 09:39:19;;;;;;;51.05;16.23;;;;;;;;;;5050113;28;20404;-67
2022/04/12 09:41:47;;;;;;;22.17;9.57;;;;;;;;;;5033833;28;20057;-66
2022/04/12 09:44:17;;;;;;;30.92;12.13;;;;;;;;;;5035701;28;20053;-67
2022/04/12 09:46:44;;;;;;;20.42;8.90;;;;;;;;;;5053912;28;20049;-66
2022/04/12 09:49:10;;;;;;;38.60;13.48;;;;;;;;;;5033101;28;20048;-65
2022/04/12 09:51:37;;;;;;;29.88;11.57;;;;;;;;;;5034048;28;20358;-66
2022/04/12 09:54:06;;;;;;;19.67;9.68;;;;;;;;;;5037061;28;20092;-67
2022/04/12 09:56:32;;;;;;;27.98;11.23;;;;;;;;;;5051220;28;20361;-66
2022/04/12 09:58:59;;;;;;;26.38;10.43;;;;;;;;;;5053915;28;20040;-66
2022/04/12 10:01:25;;;;;;;18.42;9.85;;;;;;;;;;5041311;28;20389;-65
2022/04/12 10:03:53;;;;;;;21.50;9.20;;;;;;;;;;5034498;28;20053;-66
2022/04/12 10:06:24;;;;;;;23.65;10.65;;;;;;;;;;5030258;28;20523;-68
2022/04/12 10:08:57;;;;;;;27.08;10.65;;;;;;;;;;5034420;28;20057;-65
2022/04/12 10:11:23;;;;;;;24.92;10.45;;;;;;;;;;5025524;28;20056;-65
2022/04/12 10:13:50;;;;;;;12.10;7.93;;;;;;;;;;5042372;28;20048;-65
2022/04/12 10:16:17;;;;;;;26.83;11.52;;;;;;;;;;5035724;28;20039;-65
2022/04/12 10:18:43;;;;;;;24.65;10.15;;;;;;;;;;5043143;28;20046;-65
2022/04/12 10:21:11;;;;;;;18.08;9.13;;;;;;;;;;5048234;28;20049;-66
2022/04/12 10:23:38;;;;;;;13.40;8.18;;;;;;;;;;5036109;28;20053;-65
2022/04/12 10:26:04;;;;;;;15.52;9.40;;;;;;;;;;5051091;28;20083;-66
2022/04/12 10:28:30;;;;;;;39.17;14.45;;;;;;;;;;5050625;28;20057;-66
2022/04/12 10:31:04;;;;;;;19.40;11.10;;;;;;;;;;5053329;28;20056;-66
2022/04/12 10:33:30;;;;;;;28.50;11.18;;;;;;;;;;5032466;28;20045;-66
2022/04/12 10:35:56;;;;;;;14.85;8.98;;;;;;;;;;5041926;28;20048;-66
2022/04/12 10:38:23;;;;;;;30.13;11.48;;;;;;;;;;5038461;28;20512;-66
2022/04/12 10:40:56;;;;;;;24.20;11.13;;;;;;;;;;5040007;28;20081;-66
2022/04/12 10:43:30;;;;;;;24.92;11.15;;;;;;;;;;5027951;28;20054;-66
2022/04/12 10:45:57;;;;;;;19.88;9.93;;;;;;;;;;5037747;28;20049;-66
2022/04/12 10:48:27;;;;;;;21.42;9.98;;;;;;;;;;5034151;28;20046;-65
2022/04/12 10:50:55;;;;;;;15.63;8.85;;;;;;;;;;5013415;28;20391;-66
2022/04/12 10:53:37;;;;;;;22.92;10.90;;;;;;;;;;5037459;28;20126;-66
2022/04/12 10:56:04;;;;;;;18.85;9.95;;;;;;;;;;5033497;28;20507;-66
2022/04/12 10:58:31;;;;;;;20.40;9.98;;;;;;;;;;5028054;28;20045;-66
2022/04/12 11:00:57;;;;;;;14.27;8.60;;;;;;;;;;5043712;28;20080;-66
2022/04/12 11:03:27;;;;;;;13.15;8.70;;;;;;;;;;5032167;28;20077;-66
2022/04/12 11:05:54;;;;;;;18.27;10.75;;;;;;;;;;5032971;28;20053;-65
2022/04/12 11:08:20;;;;;;;15.30;9.07;;;;;;;;;;5034874;28;20416;-65
2022/04/12 11:10:49;;;;;;;16.77;9.30;;;;;;;;;;5034772;28;20045;-65
2022/04/12 11:13:20;;;;;;;16.73;9.57;;;;;;;;;;5051392;28;20041;-66
2022/04/12 11:15:54;;;;;;;15.93;8.52;;;;;;;;;;5045305;28;20057;-66
2022/04/12 11:18:20;;;;;;;19.30;10.27;;;;;;;;;;5030337;28;20519;-66
2022/04/12 11:20:58;;;;;;;14.77;8.88;;;;;;;;;;5047164;28;20163;-65
2022/04/12 11:23:43;;;;;;;19.77;9.50;;;;;;;;;;5035020;28;20045;-65
2022/04/12 11:26:28;;;;;;;16.98;9.65;;;;;;;;;;5047408;28;20053;-67
2022/04/12 11:28:57;;;;;;;27.38;10.82;;;;;;;;;;5042775;28;20096;-66
2022/04/12 11:31:23;;;;;;;20.67;9.35;;;;;;;;;;5046186;28;20087;-66
2022/04/12 11:33:49;;;;;;;21.00;10.10;;;;;;;;;;5033011;28;20053;-66
2022/04/12 11:36:19;;;;;;;21.25;10.60;;;;;;;;;;5031484;28;20045;-65
2022/04/12 11:38:45;;;;;;;21.70;11.55;;;;;;;;;;5032096;28;20090;-67
2022/04/12 11:41:11;;;;;;;18.48;10.57;;;;;;;;;;5042678;28;20397;-65
2022/04/12 11:43:37;;;;;;;24.67;11.20;;;;;;;;;;5023073;28;20515;-65
2022/04/12 11:46:03;;;;;;;23.33;10.95;;;;;;;;;;5035595;28;20426;-66
2022/04/12 11:48:30;;;;;;;17.05;10.30;;;;;;;;;;5035404;28;20041;-65
2022/04/12 11:50:57;;;;;;;15.13;8.95;;;;;;;;;;5031501;28;20050;-66
2022/04/12 11:53:23;;;;;;;17.23;9.52;;;;;;;;;;5024135;28;20522;-66
2022/04/12 11:55:50;;;;;;;16.35;9.10;;;;;;;;;;5039137;28;20365;-65
2022/04/12 11:58:20;;;;;;;12.85;9.02;;;;;;;;;;5029686;28;20056;-65
2022/04/12 12:00:46;;;;;;;19.75;10.20;;;;;;;;;;5051217;28;20114;-65
2022/04/12 12:03:19;;;;;;;16.33;9.00;;;;;;;;;;5050049;28;20407;-66
2022/04/12 12:05:46;;;;;;;13.95;9.27;;;;;;;;;;5036610;28;20427;-66
2022/04/12 12:08:13;;;;;;;16.30;9.40;;;;;;;;;;5044679;28;20479;-66
2022/04/12 12:10:39;;;;;;;21.92;10.23;;;;;;;;;;5049186;28;20037;-65
2022/04/12 12:13:06;;;;;;;15.77;9.23;;;;;;;;;;5048033;28;20435;-65
2022/04/12 12:15:33;;;;;;;16.05;9.05;;;;;;;;;;5032503;28;20060;-66
2022/04/12 12:17:59;;;;;;;18.25;9.93;;;;;;;;;;5047578;28;20076;-67
2022/04/12 12:20:26;;;;;;;23.55;10.15;;;;;;;;;;5051610;28;20044;-66
2022/04/12 12:23:02;;;;;;;16.02;9.48;;;;;;;;;;5025168;28;20096;-65
2022/04/12 12:25:38;;;;;;;15.80;9.35;;;;;;;;;;5020417;28;20085;-66
2022/04/12 12:28:09;;;;;;;38.47;13.73;;;;;;;;;;5034355;28;20578;-66
2022/04/12 12:30:35;;;;;;;24.50;11.52;;;;;;;;;;5042839;28;20045;-66
2022/04/12 12:33:01;;;;;;;36.50;11.95;;;;;;;;;;5041742;28;20563;-65
2022/04/12 12:35:28;;;;;;;17.95;8.88;;;;;;;;;;5048535;28;20091;-67
2022/04/12 12:38:08;;;;;;;17.33;8.60;;;;;;;;;;5052745;28;20125;-66
2022/04/12 12:40:36;;;;;;;18.02;8.70;;;;;;;;;;5052907;28;20135;-66
2022/04/12 12:43:03;;;;;;;14.30;7.68;;;;;;;;;;5050938;28;20057;-65
2022/04/12 12:45:29;;;;;;;20.90;9.73;;;;;;;;;;5046399;28;20079;-65
2022/04/12 12:47:56;;;;;;;22.88;8.75;;;;;;;;;;5047074;28;20392;-65
2022/04/12 12:50:23;;;;;;;40.03;13.65;;;;;;;;;;5026911;28;20049;-66
2022/04/12 12:52:49;;;;;;;59.35;18.83;;;;;;;;;;5035866;28;20049;-65
2022/04/12 12:55:21;;;;;;;58.03;19.73;;;;;;;;;;5017334;28;20052;-67
2022/04/12 12:57:58;;;;;;;14.68;8.30;;;;;;;;;;5029617;28;20085;-66
2022/04/12 13:00:28;;;;;;;18.50;9.32;;;;;;;;;;5045799;28;20508;-65
2022/04/12 13:03:04;;;;;;;15.13;8.82;;;;;;;;;;5055728;28;20045;-66
2022/04/12 13:05:30;;;;;;;16.52;8.88;;;;;;;;;;5047265;28;20426;-65
2022/04/12 13:07:57;;;;;;;15.15;9.25;;;;;;;;;;5041542;28;20552;-66
2022/04/12 13:10:24;;;;;;;20.90;9.87;;;;;;;;;;5047305;28;20082;-67
2022/04/12 13:12:50;;;;;;;17.85;9.45;;;;;;;;;;5049593;28;20426;-67
2022/04/12 13:15:16;;;;;;;14.07;8.77;;;;;;;;;;5047270;28;20400;-67
2022/04/12 13:17:42;;;;;;;33.80;11.85;;;;;;;;;;5050787;28;20056;-67
2022/04/12 13:20:09;;;;;;;20.73;8.98;;;;;;;;;;5049025;28;20045;-67
2022/04/12 13:22:36;;;;;;;12.20;7.35;;;;;;;;;;5032760;28;20072;-66
2022/04/12 13:25:02;;;;;;;13.70;7.70;;;;;;;;;;5044665;28;20045;-67
2022/04/12 13:27:29;;;;;;;17.02;8.52;;;;;;;;;;5042342;28;20053;-67
2022/04/12 13:29:56;;;;;;;16.05;8.98;;;;;;;;;;5051348;28;20044;-67
2022/04/12 13:32:22;;;;;;;12.88;6.82;;;;;;;;;;5050636;28;20049;-67
2022/04/12 13:34:48;;;;;;;14.73;7.20;;;;;;;;;;5038704;28;20437;-67
2022/04/12 13:37:14;;;;;;;16.40;7.63;;;;;;;;;;5040929;28;20061;-67
2022/04/12 13:39:40;;;;;;;11.98;7.60;;;;;;;;;;5052214;28;20377;-66
2022/04/12 13:42:07;;;;;;;17.77;8.10;;;;;;;;;;5046327;28;20120;-66
2022/04/12 13:44:33;;;;;;;16.73;8.15;;;;;;;;;;5034066;28;20048;-65
2022/04/12 13:47:04;;;;;;;29.30;10.05;;;;;;;;;;5048022;28;20441;-66
2022/04/12 13:49:30;;;;;;;22.13;10.52;;;;;;;;;;5046348;28;20037;-65
2022/04/12 13:51:57;;;;;;;26.55;9.85;;;;;;;;;;5044035;28;20056;-66
2022/04/12 13:54:23;;;;;;;33.05;12.05;;;;;;;;;;5050549;28;20045;-66
2022/04/12 13:56:49;;;;;;;29.88;10.68;;;;;;;;;;5047553;28;20041;-66
2022/04/12 13:59:15;;;;;;;24.33;9.13;;;;;;;;;;5032753;28;20045;-65
2022/04/12 14:01:41;;;;;;;19.65;8.40;;;;;;;;;;5030238;28;20045;-65
2022/04/12 14:04:08;;;;;;;22.40;9.27;;;;;;;;;;5047526;28;20053;-65
2022/04/12 14:06:34;;;;;;;22.27;9.13;;;;;;;;;;5026524;28;20387;-67
2022/04/12 14:09:01;;;;;;;23.02;9.55;;;;;;;;;;5040414;28;20132;-66
2022/04/12 14:11:27;;;;;;;19.55;7.75;;;;;;;;;;5017670;28;20064;-64
2022/04/12 14:13:53;;;;;;;31.48;11.35;;;;;;;;;;5036441;28;20488;-65
2022/04/12 14:16:19;;;;;;;20.60;8.65;;;;;;;;;;5054440;28;20045;-65
2022/04/12 14:18:45;;;;;;;20.77;7.50;;;;;;;;;;5049245;28;20052;-66
2022/04/12 14:21:11;;;;;;;18.73;7.68;;;;;;;;;;5036779;28;20128;-66